sensor_id;sensor_type;location;lat;lon;timestamp;temperature;humidity
6654;DHT22;3363;50.942;7.034;2023-09-12T00:00:05;25.60;63.20
6654;DHT22;3363;50.942;7.034;2023-09-12T00:02:32;25.40;63.30
6654;DHT22;3363;50.942;7.034;2023-09-12T00:05:00;25.30;63.80
6654;DHT22;3363;50.942;7.034;2023-09-12T00:07:26;25.30;64.00
6654;DHT22;3363;50.942;7.034;2023-09-12T00:09:53;25.30;63.90
6654;DHT22;3363;50.942;7.034;2023-09-12T00:12:22;25.20;63.90
6654;DHT22;3363;50.942;7.034;2023-09-12T00:14:48;25.10;64.70
6654;DHT22;3363;50.942;7.034;2023-09-12T00:17:15;25.00;64.30
6654;DHT22;3363;50.942;7.034;2023-09-12T00:19:42;25.00;64.80
6654;DHT22;3363;50.942;7.034;2023-09-12T00:22:10;24.90;65.00
6654;DHT22;3363;50.942;7.034;2023-09-12T00:24:37;24.80;65.00
6654;DHT22;3363;50.942;7.034;2023-09-12T00:27:04;24.70;65.50
6654;DHT22;3363;50.942;7.034;2023-09-12T00:29:31;24.80;66.00
6654;DHT22;3363;50.942;7.034;2023-09-12T00:31:57;24.90;65.70
6654;DHT22;3363;50.942;7.034;2023-09-12T00:34:24;24.80;65.30
6654;DHT22;3363;50.942;7.034;2023-09-12T00:36:51;25.00;65.30
6654;DHT22;3363;50.942;7.034;2023-09-12T00:39:19;24.80;64.60
6654;DHT22;3363;50.942;7.034;2023-09-12T00:41:45;24.70;65.10
6654;DHT22;3363;50.942;7.034;2023-09-12T00:44:12;24.70;65.60
6654;DHT22;3363;50.942;7.034;2023-09-12T00:46:39;24.70;65.70
6654;DHT22;3363;50.942;7.034;2023-09-12T00:49:06;24.80;65.00
6654;DHT22;3363;50.942;7.034;2023-09-12T00:51:33;24.80;65.30
6654;DHT22;3363;50.942;7.034;2023-09-12T00:54:00;25.00;64.90
6654;DHT22;3363;50.942;7.034;2023-09-12T00:56:29;25.20;64.40
6654;DHT22;3363;50.942;7.034;2023-09-12T00:58:55;25.20;64.00
6654;DHT22;3363;50.942;7.034;2023-09-12T01:01:22;25.30;63.80
6654;DHT22;3363;50.942;7.034;2023-09-12T01:03:50;25.20;63.00
6654;DHT22;3363;50.942;7.034;2023-09-12T01:06:16;25.20;63.50
6654;DHT22;3363;50.942;7.034;2023-09-12T01:08:45;25.20;63.40
6654;DHT22;3363;50.942;7.034;2023-09-12T01:11:12;25.20;63.60
6654;DHT22;3363;50.942;7.034;2023-09-12T01:13:41;25.20;63.40
6654;DHT22;3363;50.942;7.034;2023-09-12T01:16:08;25.00;63.70
6654;DHT22;3363;50.942;7.034;2023-09-12T01:18:34;25.00;63.90
6654;DHT22;3363;50.942;7.034;2023-09-12T01:21:05;24.70;64.60
6654;DHT22;3363;50.942;7.034;2023-09-12T01:23:38;24.70;64.70
6654;DHT22;3363;50.942;7.034;2023-09-12T01:26:17;24.80;65.00
6654;DHT22;3363;50.942;7.034;2023-09-12T01:28:53;25.00;64.30
6654;DHT22;3363;50.942;7.034;2023-09-12T01:31:21;25.00;63.70
6654;DHT22;3363;50.942;7.034;2023-09-12T01:33:48;25.00;64.00
6654;DHT22;3363;50.942;7.034;2023-09-12T01:36:15;25.00;63.90
6654;DHT22;3363;50.942;7.034;2023-09-12T01:38:42;25.10;63.60
6654;DHT22;3363;50.942;7.034;2023-09-12T01:41:08;25.00;63.80
6654;DHT22;3363;50.942;7.034;2023-09-12T01:43:35;25.00;63.50
6654;DHT22;3363;50.942;7.034;2023-09-12T01:46:06;24.80;64.10
6654;DHT22;3363;50.942;7.034;2023-09-12T01:48:33;24.60;64.40
6654;DHT22;3363;50.942;7.034;2023-09-12T01:51:00;24.50;64.70
6654;DHT22;3363;50.942;7.034;2023-09-12T01:53:27;24.50;65.60
6654;DHT22;3363;50.942;7.034;2023-09-12T01:55:54;24.50;65.40
6654;DHT22;3363;50.942;7.034;2023-09-12T01:58:23;24.60;65.20
6654;DHT22;3363;50.942;7.034;2023-09-12T02:00:49;24.50;65.20
6654;DHT22;3363;50.942;7.034;2023-09-12T02:03:17;24.50;65.40
6654;DHT22;3363;50.942;7.034;2023-09-12T02:05:44;24.40;65.30
6654;DHT22;3363;50.942;7.034;2023-09-12T02:08:11;24.50;65.40
6654;DHT22;3363;50.942;7.034;2023-09-12T02:10:37;24.60;64.60
6654;DHT22;3363;50.942;7.034;2023-09-12T02:13:04;24.50;65.20
6654;DHT22;3363;50.942;7.034;2023-09-12T02:15:31;24.50;65.20
6654;DHT22;3363;50.942;7.034;2023-09-12T02:17:57;24.50;65.00
6654;DHT22;3363;50.942;7.034;2023-09-12T02:20:25;24.60;64.70
6654;DHT22;3363;50.942;7.034;2023-09-12T02:22:52;24.60;64.40
6654;DHT22;3363;50.942;7.034;2023-09-12T02:25:19;24.50;64.80
6654;DHT22;3363;50.942;7.034;2023-09-12T02:27:45;24.30;64.90
6654;DHT22;3363;50.942;7.034;2023-09-12T02:30:12;24.40;64.30
6654;DHT22;3363;50.942;7.034;2023-09-12T02:32:41;24.30;64.60
6654;DHT22;3363;50.942;7.034;2023-09-12T02:35:07;24.30;65.10
6654;DHT22;3363;50.942;7.034;2023-09-12T02:37:35;24.40;65.10
6654;DHT22;3363;50.942;7.034;2023-09-12T02:40:02;24.30;65.10
6654;DHT22;3363;50.942;7.034;2023-09-12T02:42:30;24.40;63.70
6654;DHT22;3363;50.942;7.034;2023-09-12T02:44:57;24.30;65.10
6654;DHT22;3363;50.942;7.034;2023-09-12T02:47:23;24.10;65.20
6654;DHT22;3363;50.942;7.034;2023-09-12T02:49:50;24.10;64.60
6654;DHT22;3363;50.942;7.034;2023-09-12T02:52:17;24.20;65.40
6654;DHT22;3363;50.942;7.034;2023-09-12T02:54:45;24.40;64.10
6654;DHT22;3363;50.942;7.034;2023-09-12T02:57:11;24.20;64.10
6654;DHT22;3363;50.942;7.034;2023-09-12T02:59:38;24.20;64.80
6654;DHT22;3363;50.942;7.034;2023-09-12T03:02:05;24.30;63.20
6654;DHT22;3363;50.942;7.034;2023-09-12T03:04:32;24.20;64.30
6654;DHT22;3363;50.942;7.034;2023-09-12T03:06:59;24.30;64.10
6654;DHT22;3363;50.942;7.034;2023-09-12T03:09:26;24.20;64.30
6654;DHT22;3363;50.942;7.034;2023-09-12T03:11:54;24.30;64.30
6654;DHT22;3363;50.942;7.034;2023-09-12T03:14:20;24.20;64.00
6654;DHT22;3363;50.942;7.034;2023-09-12T03:16:47;24.10;64.30
6654;DHT22;3363;50.942;7.034;2023-09-12T03:19:14;24.20;64.30
6654;DHT22;3363;50.942;7.034;2023-09-12T03:21:40;24.30;64.00
6654;DHT22;3363;50.942;7.034;2023-09-12T03:24:07;24.30;63.80
6654;DHT22;3363;50.942;7.034;2023-09-12T03:26:35;24.30;63.40
6654;DHT22;3363;50.942;7.034;2023-09-12T03:29:04;24.30;63.50
6654;DHT22;3363;50.942;7.034;2023-09-12T03:31:30;24.40;63.50
6654;DHT22;3363;50.942;7.034;2023-09-12T03:33:57;24.40;63.40
6654;DHT22;3363;50.942;7.034;2023-09-12T03:36:24;24.30;62.50
6654;DHT22;3363;50.942;7.034;2023-09-12T03:38:50;24.20;63.50
6654;DHT22;3363;50.942;7.034;2023-09-12T03:41:17;24.20;63.60
6654;DHT22;3363;50.942;7.034;2023-09-12T03:43:44;24.20;64.00
6654;DHT22;3363;50.942;7.034;2023-09-12T03:46:12;24.20;63.80
6654;DHT22;3363;50.942;7.034;2023-09-12T03:48:38;24.30;63.50
6654;DHT22;3363;50.942;7.034;2023-09-12T03:51:05;24.30;63.50
6654;DHT22;3363;50.942;7.034;2023-09-12T03:53:32;24.30;63.50
6654;DHT22;3363;50.942;7.034;2023-09-12T03:55:58;24.30;63.50
6654;DHT22;3363;50.942;7.034;2023-09-12T03:58:25;24.30;63.40
6654;DHT22;3363;50.942;7.034;2023-09-12T04:00:52;24.30;63.40
6654;DHT22;3363;50.942;7.034;2023-09-12T04:03:20;24.30;63.30
6654;DHT22;3363;50.942;7.034;2023-09-12T04:05:47;24.30;63.30
6654;DHT22;3363;50.942;7.034;2023-09-12T04:08:14;24.30;63.40
6654;DHT22;3363;50.942;7.034;2023-09-12T04:10:40;24.30;63.30
6654;DHT22;3363;50.942;7.034;2023-09-12T04:13:07;24.30;63.40
6654;DHT22;3363;50.942;7.034;2023-09-12T04:15:34;24.30;63.40
6654;DHT22;3363;50.942;7.034;2023-09-12T04:18:00;24.30;63.40
6654;DHT22;3363;50.942;7.034;2023-09-12T04:20:29;24.30;63.50
6654;DHT22;3363;50.942;7.034;2023-09-12T04:22:55;24.30;63.50
6654;DHT22;3363;50.942;7.034;2023-09-12T04:25:22;24.30;63.60
6654;DHT22;3363;50.942;7.034;2023-09-12T04:27:49;24.30;63.70
6654;DHT22;3363;50.942;7.034;2023-09-12T04:30:15;24.20;63.60
6654;DHT22;3363;50.942;7.034;2023-09-12T04:32:42;24.20;63.70
6654;DHT22;3363;50.942;7.034;2023-09-12T04:35:09;24.20;63.70
6654;DHT22;3363;50.942;7.034;2023-09-12T04:37:37;24.20;63.80
6654;DHT22;3363;50.942;7.034;2023-09-12T04:40:04;24.20;63.90
6654;DHT22;3363;50.942;7.034;2023-09-12T04:42:32;24.20;63.90
6654;DHT22;3363;50.942;7.034;2023-09-12T04:44:57;24.20;64.00
6654;DHT22;3363;50.942;7.034;2023-09-12T04:47:24;24.20;64.00
6654;DHT22;3363;50.942;7.034;2023-09-12T04:49:51;24.20;64.10
6654;DHT22;3363;50.942;7.034;2023-09-12T04:52:18;24.20;64.20
6654;DHT22;3363;50.942;7.034;2023-09-12T04:54:46;24.00;64.20
6654;DHT22;3363;50.942;7.034;2023-09-12T04:57:13;23.80;64.60
6654;DHT22;3363;50.942;7.034;2023-09-12T04:59:39;23.70;65.60
6654;DHT22;3363;50.942;7.034;2023-09-12T05:02:06;23.90;65.30
6654;DHT22;3363;50.942;7.034;2023-09-12T05:04:33;23.90;65.00
6654;DHT22;3363;50.942;7.034;2023-09-12T05:07:00;24.00;64.90
6654;DHT22;3363;50.942;7.034;2023-09-12T05:09:27;24.00;64.90
6654;DHT22;3363;50.942;7.034;2023-09-12T05:11:55;24.00;64.90
6654;DHT22;3363;50.942;7.034;2023-09-12T05:14:21;24.00;65.00
6654;DHT22;3363;50.942;7.034;2023-09-12T05:16:48;24.00;65.10
6654;DHT22;3363;50.942;7.034;2023-09-12T05:19:15;24.00;65.10
6654;DHT22;3363;50.942;7.034;2023-09-12T05:21:41;24.00;65.20
6654;DHT22;3363;50.942;7.034;2023-09-12T05:24:08;24.00;65.40
6654;DHT22;3363;50.942;7.034;2023-09-12T05:26:35;24.00;65.40
6654;DHT22;3363;50.942;7.034;2023-09-12T05:29:03;24.00;65.40
6654;DHT22;3363;50.942;7.034;2023-09-12T05:31:30;24.00;65.50
6654;DHT22;3363;50.942;7.034;2023-09-12T05:33:57;23.90;65.50
6654;DHT22;3363;50.942;7.034;2023-09-12T05:36:24;23.80;66.60
6654;DHT22;3363;50.942;7.034;2023-09-12T05:38:51;23.50;68.20
6654;DHT22;3363;50.942;7.034;2023-09-12T05:41:17;23.50;69.20
6654;DHT22;3363;50.942;7.034;2023-09-12T05:43:44;23.50;68.90
6654;DHT22;3363;50.942;7.034;2023-09-12T05:46:12;23.50;68.80
6654;DHT22;3363;50.942;7.034;2023-09-12T05:48:39;23.50;69.10
6654;DHT22;3363;50.942;7.034;2023-09-12T05:51:05;23.60;69.00
6654;DHT22;3363;50.942;7.034;2023-09-12T05:53:32;23.70;68.90
6654;DHT22;3363;50.942;7.034;2023-09-12T05:55:58;23.80;67.90
6654;DHT22;3363;50.942;7.034;2023-09-12T05:58:25;23.60;68.40
6654;DHT22;3363;50.942;7.034;2023-09-12T06:00:52;23.50;69.70
6654;DHT22;3363;50.942;7.034;2023-09-12T06:03:23;23.60;69.10
6654;DHT22;3363;50.942;7.034;2023-09-12T06:05:49;23.60;68.40
6654;DHT22;3363;50.942;7.034;2023-09-12T06:08:16;23.70;69.10
6654;DHT22;3363;50.942;7.034;2023-09-12T06:10:43;23.80;69.50
6654;DHT22;3363;50.942;7.034;2023-09-12T06:13:09;23.90;69.10
6654;DHT22;3363;50.942;7.034;2023-09-12T06:15:36;23.90;69.30
6654;DHT22;3363;50.942;7.034;2023-09-12T06:18:03;23.90;67.50
6654;DHT22;3363;50.942;7.034;2023-09-12T06:20:31;23.80;69.10
6654;DHT22;3363;50.942;7.034;2023-09-12T06:22:57;23.70;69.00
6654;DHT22;3363;50.942;7.034;2023-09-12T06:25:24;23.70;69.30
6654;DHT22;3363;50.942;7.034;2023-09-12T06:27:51;23.80;69.20
6654;DHT22;3363;50.942;7.034;2023-09-12T06:30:18;23.90;67.70
6654;DHT22;3363;50.942;7.034;2023-09-12T06:32:44;23.70;69.00
6654;DHT22;3363;50.942;7.034;2023-09-12T06:35:11;23.70;69.00
6654;DHT22;3363;50.942;7.034;2023-09-12T06:37:39;23.60;68.20
6654;DHT22;3363;50.942;7.034;2023-09-12T06:40:06;23.70;68.20
6654;DHT22;3363;50.942;7.034;2023-09-12T06:42:33;23.70;68.00
6654;DHT22;3363;50.942;7.034;2023-09-12T06:45:00;23.80;68.10
6654;DHT22;3363;50.942;7.034;2023-09-12T06:47:26;23.80;67.90
6654;DHT22;3363;50.942;7.034;2023-09-12T06:49:53;23.80;68.40
6654;DHT22;3363;50.942;7.034;2023-09-12T06:52:19;23.90;68.40
6654;DHT22;3363;50.942;7.034;2023-09-12T06:54:47;23.90;68.10
6654;DHT22;3363;50.942;7.034;2023-09-12T06:57:14;23.90;66.20
6654;DHT22;3363;50.942;7.034;2023-09-12T06:59:41;23.80;67.00
6654;DHT22;3363;50.942;7.034;2023-09-12T07:02:07;23.80;67.80
6654;DHT22;3363;50.942;7.034;2023-09-12T07:04:35;23.80;68.10
6654;DHT22;3363;50.942;7.034;2023-09-12T07:07:02;23.80;68.50
6654;DHT22;3363;50.942;7.034;2023-09-12T07:09:29;23.70;68.90
6654;DHT22;3363;50.942;7.034;2023-09-12T07:11:57;23.80;69.10
6654;DHT22;3363;50.942;7.034;2023-09-12T07:14:24;23.80;69.00
6654;DHT22;3363;50.942;7.034;2023-09-12T07:16:51;23.70;69.40
6654;DHT22;3363;50.942;7.034;2023-09-12T07:19:17;23.80;69.70
6654;DHT22;3363;50.942;7.034;2023-09-12T07:21:44;23.80;69.30
6654;DHT22;3363;50.942;7.034;2023-09-12T07:24:11;23.80;69.50
6654;DHT22;3363;50.942;7.034;2023-09-12T07:26:38;23.80;69.30
6654;DHT22;3363;50.942;7.034;2023-09-12T07:29:06;23.80;69.10
6654;DHT22;3363;50.942;7.034;2023-09-12T07:31:33;23.90;69.30
6654;DHT22;3363;50.942;7.034;2023-09-12T07:33:59;23.80;69.00
6654;DHT22;3363;50.942;7.034;2023-09-12T07:36:26;23.80;69.70
6654;DHT22;3363;50.942;7.034;2023-09-12T07:38:53;23.70;69.70
6654;DHT22;3363;50.942;7.034;2023-09-12T07:41:19;23.70;69.90
6654;DHT22;3363;50.942;7.034;2023-09-12T07:43:46;23.80;69.20
6654;DHT22;3363;50.942;7.034;2023-09-12T07:46:14;23.80;69.60
6654;DHT22;3363;50.942;7.034;2023-09-12T07:48:40;23.80;69.20
6654;DHT22;3363;50.942;7.034;2023-09-12T07:51:11;23.90;69.60
6654;DHT22;3363;50.942;7.034;2023-09-12T07:53:38;23.90;69.70
6654;DHT22;3363;50.942;7.034;2023-09-12T07:56:04;23.90;69.70
6654;DHT22;3363;50.942;7.034;2023-09-12T07:58:31;23.90;69.60
6654;DHT22;3363;50.942;7.034;2023-09-12T08:00:57;23.90;69.40
6654;DHT22;3363;50.942;7.034;2023-09-12T08:03:25;24.00;69.50
6654;DHT22;3363;50.942;7.034;2023-09-12T08:05:56;23.90;68.60
6654;DHT22;3363;50.942;7.034;2023-09-12T08:08:23;24.00;69.60
6654;DHT22;3363;50.942;7.034;2023-09-12T08:10:49;23.90;69.50
6654;DHT22;3363;50.942;7.034;2023-09-12T08:13:16;23.90;69.10
6654;DHT22;3363;50.942;7.034;2023-09-12T08:15:43;23.90;70.00
6654;DHT22;3363;50.942;7.034;2023-09-12T08:18:09;23.70;70.20
6654;DHT22;3363;50.942;7.034;2023-09-12T08:20:37;23.80;70.00
6654;DHT22;3363;50.942;7.034;2023-09-12T08:23:04;23.70;70.80
6654;DHT22;3363;50.942;7.034;2023-09-12T08:25:31;23.90;70.10
6654;DHT22;3363;50.942;7.034;2023-09-12T08:27:57;23.90;70.10
6654;DHT22;3363;50.942;7.034;2023-09-12T08:30:24;23.90;69.70
6654;DHT22;3363;50.942;7.034;2023-09-12T08:32:51;23.90;70.40
6654;DHT22;3363;50.942;7.034;2023-09-12T08:35:17;23.80;70.30
6654;DHT22;3363;50.942;7.034;2023-09-12T08:37:45;23.90;71.00
6654;DHT22;3363;50.942;7.034;2023-09-12T08:40:13;23.90;71.30
6654;DHT22;3363;50.942;7.034;2023-09-12T08:42:40;24.10;70.40
6654;DHT22;3363;50.942;7.034;2023-09-12T08:45:09;24.10;70.20
6654;DHT22;3363;50.942;7.034;2023-09-12T08:47:37;24.20;69.30
6654;DHT22;3363;50.942;7.034;2023-09-12T08:50:05;24.30;69.00
6654;DHT22;3363;50.942;7.034;2023-09-12T08:55:00;24.40;69.10
6654;DHT22;3363;50.942;7.034;2023-09-12T08:57:28;24.60;68.20
6654;DHT22;3363;50.942;7.034;2023-09-12T08:59:56;24.50;68.60
6654;DHT22;3363;50.942;7.034;2023-09-12T09:02:22;24.40;68.60
6654;DHT22;3363;50.942;7.034;2023-09-12T09:04:49;24.50;68.70
6654;DHT22;3363;50.942;7.034;2023-09-12T09:07:16;24.70;68.20
6654;DHT22;3363;50.942;7.034;2023-09-12T09:09:44;24.70;67.20
6654;DHT22;3363;50.942;7.034;2023-09-12T09:12:13;24.50;67.80
6654;DHT22;3363;50.942;7.034;2023-09-12T09:14:40;24.70;67.40
6654;DHT22;3363;50.942;7.034;2023-09-12T09:17:07;24.70;67.10
6654;DHT22;3363;50.942;7.034;2023-09-12T09:19:45;24.80;67.50
6654;DHT22;3363;50.942;7.034;2023-09-12T09:22:13;24.80;66.60
6654;DHT22;3363;50.942;7.034;2023-09-12T09:24:39;25.00;66.70
6654;DHT22;3363;50.942;7.034;2023-09-12T09:27:06;24.80;66.50
6654;DHT22;3363;50.942;7.034;2023-09-12T09:29:44;25.00;66.90
6654;DHT22;3363;50.942;7.034;2023-09-12T09:32:16;25.00;66.70
6654;DHT22;3363;50.942;7.034;2023-09-12T09:34:43;25.20;66.00
6654;DHT22;3363;50.942;7.034;2023-09-12T09:37:10;25.30;62.90
6654;DHT22;3363;50.942;7.034;2023-09-12T09:39:36;25.00;65.70
6654;DHT22;3363;50.942;7.034;2023-09-12T09:42:03;25.30;64.70
6654;DHT22;3363;50.942;7.034;2023-09-12T09:44:30;24.90;63.80
6654;DHT22;3363;50.942;7.034;2023-09-12T09:46:59;25.10;66.10
6654;DHT22;3363;50.942;7.034;2023-09-12T09:49:27;25.40;65.70
6654;DHT22;3363;50.942;7.034;2023-09-12T09:51:54;25.30;66.00
6654;DHT22;3363;50.942;7.034;2023-09-12T09:54:23;25.40;65.60
6654;DHT22;3363;50.942;7.034;2023-09-12T09:56:50;25.90;64.10
6654;DHT22;3363;50.942;7.034;2023-09-12T09:59:20;25.70;62.70
6654;DHT22;3363;50.942;7.034;2023-09-12T10:01:48;25.60;64.30
6654;DHT22;3363;50.942;7.034;2023-09-12T10:04:17;25.70;63.60
6654;DHT22;3363;50.942;7.034;2023-09-12T10:06:45;25.90;62.80
6654;DHT22;3363;50.942;7.034;2023-09-12T10:09:12;25.90;62.20
6654;DHT22;3363;50.942;7.034;2023-09-12T10:11:39;25.60;63.20
6654;DHT22;3363;50.942;7.034;2023-09-12T10:14:07;25.40;63.70
6654;DHT22;3363;50.942;7.034;2023-09-12T10:16:34;25.30;64.30
6654;DHT22;3363;50.942;7.034;2023-09-12T10:19:04;25.30;65.10
6654;DHT22;3363;50.942;7.034;2023-09-12T10:21:37;25.30;65.30
6654;DHT22;3363;50.942;7.034;2023-09-12T10:24:06;25.40;65.00
6654;DHT22;3363;50.942;7.034;2023-09-12T10:26:33;25.50;64.10
6654;DHT22;3363;50.942;7.034;2023-09-12T10:29:01;25.40;64.50
6654;DHT22;3363;50.942;7.034;2023-09-12T10:31:29;25.40;64.50
6654;DHT22;3363;50.942;7.034;2023-09-12T10:33:56;25.30;64.50
6654;DHT22;3363;50.942;7.034;2023-09-12T10:36:24;25.20;65.60
6654;DHT22;3363;50.942;7.034;2023-09-12T10:38:53;25.50;64.90
6654;DHT22;3363;50.942;7.034;2023-09-12T10:41:21;25.60;64.20
6654;DHT22;3363;50.942;7.034;2023-09-12T10:43:48;25.70;64.50
6654;DHT22;3363;50.942;7.034;2023-09-12T10:46:17;25.80;64.10
6654;DHT22;3363;50.942;7.034;2023-09-12T10:48:44;25.90;63.60
6654;DHT22;3363;50.942;7.034;2023-09-12T10:51:11;26.00;63.70
6654;DHT22;3363;50.942;7.034;2023-09-12T10:53:38;25.70;63.20
6654;DHT22;3363;50.942;7.034;2023-09-12T10:56:17;25.70;63.90
6654;DHT22;3363;50.942;7.034;2023-09-12T11:01:29;25.80;64.20
6654;DHT22;3363;50.942;7.034;2023-09-12T11:03:56;25.70;64.70
6654;DHT22;3363;50.942;7.034;2023-09-12T11:06:27;25.90;64.10
6654;DHT22;3363;50.942;7.034;2023-09-12T11:11:41;25.90;64.70
6654;DHT22;3363;50.942;7.034;2023-09-12T11:14:08;25.90;64.30
6654;DHT22;3363;50.942;7.034;2023-09-12T11:16:34;26.00;63.60
6654;DHT22;3363;50.942;7.034;2023-09-12T11:19:17;26.00;62.90
6654;DHT22;3363;50.942;7.034;2023-09-12T11:21:44;26.20;63.00
6654;DHT22;3363;50.942;7.034;2023-09-12T11:24:12;26.10;63.40
6654;DHT22;3363;50.942;7.034;2023-09-12T11:26:58;26.20;62.50
6654;DHT22;3363;50.942;7.034;2023-09-12T11:29:29;25.90;63.60
6654;DHT22;3363;50.942;7.034;2023-09-12T11:31:56;26.10;63.00
6654;DHT22;3363;50.942;7.034;2023-09-12T11:34:27;26.20;63.00
6654;DHT22;3363;50.942;7.034;2023-09-12T11:36:54;26.40;63.20
6654;DHT22;3363;50.942;7.034;2023-09-12T11:39:22;26.60;62.30
6654;DHT22;3363;50.942;7.034;2023-09-12T11:41:49;26.70;61.40
6654;DHT22;3363;50.942;7.034;2023-09-12T11:44:18;26.70;61.70
6654;DHT22;3363;50.942;7.034;2023-09-12T11:46:44;26.90;60.90
6654;DHT22;3363;50.942;7.034;2023-09-12T11:49:13;26.80;61.50
6654;DHT22;3363;50.942;7.034;2023-09-12T11:51:45;27.00;60.80
6654;DHT22;3363;50.942;7.034;2023-09-12T11:54:13;27.00;60.70
6654;DHT22;3363;50.942;7.034;2023-09-12T11:56:42;27.10;60.10
6654;DHT22;3363;50.942;7.034;2023-09-12T11:59:08;27.30;59.50
6654;DHT22;3363;50.942;7.034;2023-09-12T12:01:36;27.20;59.30
6654;DHT22;3363;50.942;7.034;2023-09-12T12:04:03;27.00;59.40
6654;DHT22;3363;50.942;7.034;2023-09-12T12:06:32;27.00;60.20
6654;DHT22;3363;50.942;7.034;2023-09-12T12:09:00;27.00;60.40
6654;DHT22;3363;50.942;7.034;2023-09-12T12:11:29;26.80;59.40
6654;DHT22;3363;50.942;7.034;2023-09-12T12:13:56;26.70;61.40
6654;DHT22;3363;50.942;7.034;2023-09-12T12:16:24;26.90;59.70
6654;DHT22;3363;50.942;7.034;2023-09-12T12:18:53;27.00;59.90
6654;DHT22;3363;50.942;7.034;2023-09-12T12:21:21;27.00;59.30
6654;DHT22;3363;50.942;7.034;2023-09-12T12:23:56;27.20;59.00
6654;DHT22;3363;50.942;7.034;2023-09-12T12:26:24;27.30;59.40
6654;DHT22;3363;50.942;7.034;2023-09-12T12:28:50;27.40;59.20
6654;DHT22;3363;50.942;7.034;2023-09-12T12:31:17;27.40;58.20
6654;DHT22;3363;50.942;7.034;2023-09-12T12:33:47;27.20;58.40
6654;DHT22;3363;50.942;7.034;2023-09-12T12:36:15;27.20;58.80
6654;DHT22;3363;50.942;7.034;2023-09-12T12:38:42;27.10;60.90
6654;DHT22;3363;50.942;7.034;2023-09-12T12:41:09;27.20;59.80
6654;DHT22;3363;50.942;7.034;2023-09-12T12:43:36;27.50;58.70
6654;DHT22;3363;50.942;7.034;2023-09-12T12:46:09;27.50;57.30
6654;DHT22;3363;50.942;7.034;2023-09-12T12:48:36;27.60;58.50
6654;DHT22;3363;50.942;7.034;2023-09-12T12:51:12;27.70;57.90
6654;DHT22;3363;50.942;7.034;2023-09-12T12:53:43;27.70;57.60
6654;DHT22;3363;50.942;7.034;2023-09-12T12:56:14;27.50;57.20
6654;DHT22;3363;50.942;7.034;2023-09-12T12:58:45;27.70;58.20
6654;DHT22;3363;50.942;7.034;2023-09-12T13:01:12;27.80;57.00
6654;DHT22;3363;50.942;7.034;2023-09-12T13:03:38;27.80;57.40
6654;DHT22;3363;50.942;7.034;2023-09-12T13:06:06;27.60;56.10
6654;DHT22;3363;50.942;7.034;2023-09-12T13:08:38;27.60;58.40
6654;DHT22;3363;50.942;7.034;2023-09-12T13:11:06;27.50;57.50
6654;DHT22;3363;50.942;7.034;2023-09-12T13:13:33;27.30;57.60
6654;DHT22;3363;50.942;7.034;2023-09-12T13:16:00;27.30;58.00
6654;DHT22;3363;50.942;7.034;2023-09-12T13:18:27;27.20;58.70
6654;DHT22;3363;50.942;7.034;2023-09-12T13:20:53;27.00;58.00
6654;DHT22;3363;50.942;7.034;2023-09-12T13:23:20;27.10;59.20
6654;DHT22;3363;50.942;7.034;2023-09-12T13:25:46;27.10;57.60
6654;DHT22;3363;50.942;7.034;2023-09-12T13:28:14;26.70;59.40
6654;DHT22;3363;50.942;7.034;2023-09-12T13:30:41;26.00;60.10
6654;DHT22;3363;50.942;7.034;2023-09-12T13:33:08;26.00;60.30
6654;DHT22;3363;50.942;7.034;2023-09-12T13:35:36;26.10;60.20
6654;DHT22;3363;50.942;7.034;2023-09-12T13:38:03;26.30;60.10
6654;DHT22;3363;50.942;7.034;2023-09-12T13:40:35;26.20;60.90
6654;DHT22;3363;50.942;7.034;2023-09-12T13:43:02;26.40;59.40
6654;DHT22;3363;50.942;7.034;2023-09-12T13:45:30;26.50;59.50
6654;DHT22;3363;50.942;7.034;2023-09-12T13:47:57;26.60;59.60
6654;DHT22;3363;50.942;7.034;2023-09-12T13:50:24;26.80;59.50
6654;DHT22;3363;50.942;7.034;2023-09-12T13:52:51;26.80;59.90
6654;DHT22;3363;50.942;7.034;2023-09-12T13:55:17;26.70;59.40
6654;DHT22;3363;50.942;7.034;2023-09-12T13:57:44;26.70;59.90
6654;DHT22;3363;50.942;7.034;2023-09-12T14:00:11;26.40;59.30
6654;DHT22;3363;50.942;7.034;2023-09-12T14:02:39;26.40;61.10
6654;DHT22;3363;50.942;7.034;2023-09-12T14:05:06;26.40;60.70
6654;DHT22;3363;50.942;7.034;2023-09-12T14:07:32;26.40;60.60
6654;DHT22;3363;50.942;7.034;2023-09-12T14:10:00;26.40;60.60
6654;DHT22;3363;50.942;7.034;2023-09-12T14:12:27;26.30;61.20
6654;DHT22;3363;50.942;7.034;2023-09-12T14:14:54;26.30;59.20
6654;DHT22;3363;50.942;7.034;2023-09-12T14:17:20;26.30;60.80
6654;DHT22;3363;50.942;7.034;2023-09-12T14:19:48;26.40;60.80
6654;DHT22;3363;50.942;7.034;2023-09-12T14:22:15;26.50;59.70
6654;DHT22;3363;50.942;7.034;2023-09-12T14:24:41;26.60;60.10
6654;DHT22;3363;50.942;7.034;2023-09-12T14:27:08;26.40;60.80
6654;DHT22;3363;50.942;7.034;2023-09-12T14:29:35;26.30;58.70
6654;DHT22;3363;50.942;7.034;2023-09-12T14:32:01;26.40;60.00
6654;DHT22;3363;50.942;7.034;2023-09-12T14:34:28;26.30;59.60
6654;DHT22;3363;50.942;7.034;2023-09-12T14:36:58;26.20;58.90
6654;DHT22;3363;50.942;7.034;2023-09-12T14:39:25;26.30;60.70
6654;DHT22;3363;50.942;7.034;2023-09-12T14:41:52;26.30;60.50
6654;DHT22;3363;50.942;7.034;2023-09-12T14:44:19;26.30;60.30
6654;DHT22;3363;50.942;7.034;2023-09-12T14:46:46;26.30;60.00
6654;DHT22;3363;50.942;7.034;2023-09-12T14:49:13;26.10;59.50
6654;DHT22;3363;50.942;7.034;2023-09-12T14:51:39;26.40;60.70
6654;DHT22;3363;50.942;7.034;2023-09-12T14:54:08;26.40;58.40
6654;DHT22;3363;50.942;7.034;2023-09-12T14:56:35;26.50;58.60
6654;DHT22;3363;50.942;7.034;2023-09-12T14:59:03;26.50;59.30
6654;DHT22;3363;50.942;7.034;2023-09-12T15:01:30;26.70;58.70
6654;DHT22;3363;50.942;7.034;2023-09-12T15:03:57;26.70;58.70
6654;DHT22;3363;50.942;7.034;2023-09-12T15:06:23;26.90;57.90
6654;DHT22;3363;50.942;7.034;2023-09-12T15:08:50;26.80;56.60
6654;DHT22;3363;50.942;7.034;2023-09-12T15:11:18;26.70;58.50
6654;DHT22;3363;50.942;7.034;2023-09-12T15:13:45;26.50;58.20
6654;DHT22;3363;50.942;7.034;2023-09-12T15:16:12;26.50;58.50
6654;DHT22;3363;50.942;7.034;2023-09-12T15:18:38;26.60;58.70
6654;DHT22;3363;50.942;7.034;2023-09-12T15:21:06;26.70;56.90
6654;DHT22;3363;50.942;7.034;2023-09-12T15:23:33;26.60;58.40
6654;DHT22;3363;50.942;7.034;2023-09-12T15:26:00;26.50;58.80
6654;DHT22;3363;50.942;7.034;2023-09-12T15:28:28;26.60;58.90
6654;DHT22;3363;50.942;7.034;2023-09-12T15:30:54;26.50;59.30
6654;DHT22;3363;50.942;7.034;2023-09-12T15:33:21;26.50;58.50
6654;DHT22;3363;50.942;7.034;2023-09-12T15:35:48;26.50;59.50
6654;DHT22;3363;50.942;7.034;2023-09-12T15:38:15;26.40;57.80
6654;DHT22;3363;50.942;7.034;2023-09-12T15:40:42;26.50;60.00
6654;DHT22;3363;50.942;7.034;2023-09-12T15:43:08;26.30;59.40
6654;DHT22;3363;50.942;7.034;2023-09-12T15:45:36;26.30;59.50
6654;DHT22;3363;50.942;7.034;2023-09-12T15:48:03;26.30;59.80
6654;DHT22;3363;50.942;7.034;2023-09-12T15:50:30;26.10;58.40
6654;DHT22;3363;50.942;7.034;2023-09-12T15:52:56;26.10;59.20
6654;DHT22;3363;50.942;7.034;2023-09-12T15:55:24;25.90;56.90
6654;DHT22;3363;50.942;7.034;2023-09-12T15:57:51;26.10;59.50
6654;DHT22;3363;50.942;7.034;2023-09-12T16:00:17;26.10;60.00
6654;DHT22;3363;50.942;7.034;2023-09-12T16:02:45;26.10;60.10
6654;DHT22;3363;50.942;7.034;2023-09-12T16:05:16;26.10;58.20
6654;DHT22;3363;50.942;7.034;2023-09-12T16:07:43;26.10;59.00
6654;DHT22;3363;50.942;7.034;2023-09-12T16:10:09;26.10;59.30